Time;durP1;ratioP1;P1;durP2;ratioP2;P2;SDS_P1;SDS_P2;PMS_P1;PMS_P2;Temp;Humidity;BMP_temperature;BMP_pressure;BME280_temperature;BME280_humidity;BME280_pressure;Samples;Min_cycle;Max_cycle;Signal;HPM_P1;HPM_P2
2023/08/21 00:00:39;;;;;;;;;;;24.80;99.90;;;;;;4595605;19;20225;-60
2023/08/21 00:02:30;;;;;;;;;;;24.80;99.90;;;;;;4595111;19;19938;-60
2023/08/21 00:04:01;;;;;;;;;;;24.80;99.90;;;;;;4595440;19;19918;-60
2023/08/21 00:05:32;;;;;;;;;;;24.80;99.90;;;;;;4595388;19;19926;-60
2023/08/21 00:07:04;;;;;;;;;;;24.70;99.90;;;;;;4595384;19;19915;-61
2023/08/21 00:08:35;;;;;;;;;;;24.70;99.90;;;;;;4595348;19;19919;-60
2023/08/21 00:10:07;;;;;;;;;;;24.70;99.90;;;;;;4595254;19;19914;-61
2023/08/21 00:11:38;;;;;;;;;;;24.70;99.90;;;;;;4594772;19;20314;-61
2023/08/21 00:13:10;;;;;;;;;;;24.70;99.90;;;;;;4593316;19;19914;-60
2023/08/21 00:14:41;;;;;;;;;;;24.70;99.90;;;;;;4594194;19;19938;-60
2023/08/21 00:16:12;;;;;;;;;;;24.70;99.90;;;;;;4592902;19;19923;-60
2023/08/21 00:17:44;;;;;;;;;;;24.70;99.90;;;;;;4595202;19;19911;-61
2023/08/21 00:19:15;;;;;;;;;;;24.70;99.90;;;;;;4595179;19;19915;-60
2023/08/21 00:20:46;;;;;;;;;;;24.70;99.90;;;;;;4595449;19;20283;-60
2023/08/21 00:22:18;;;;;;;;;;;24.60;99.90;;;;;;4595301;19;19922;-60
2023/08/21 00:23:49;;;;;;;;;;;24.60;99.90;;;;;;4595086;19;19938;-60
2023/08/21 00:25:21;;;;;;;;;;;24.60;99.90;;;;;;4595032;19;19911;-60
2023/08/21 00:26:52;;;;;;;;;;;24.60;99.90;;;;;;4594895;19;19919;-60
2023/08/21 00:28:24;;;;;;;;;;;24.60;99.90;;;;;;4595319;19;19911;-60
2023/08/21 00:29:55;;;;;;;;;;;24.60;99.90;;;;;;4594260;19;19915;-60
2023/08/21 00:31:27;;;;;;;;;;;24.60;99.90;;;;;;4593938;19;19922;-60
2023/08/21 00:32:58;;;;;;;;;;;24.60;99.90;;;;;;4593662;19;19915;-60
2023/08/21 00:34:29;;;;;;;;;;;24.60;99.90;;;;;;4594878;19;19919;-60
2023/08/21 00:36:01;;;;;;;;;;;24.60;99.90;;;;;;4592843;19;19921;-60
2023/08/21 00:37:32;;;;;;;;;;;24.60;99.90;;;;;;4595047;19;20295;-60
2023/08/21 00:39:03;;;;;;;;;;;24.60;99.90;;;;;;4594512;19;20235;-60
2023/08/21 00:40:35;;;;;;;;;;;24.60;99.90;;;;;;4594452;19;19922;-60
2023/08/21 00:42:07;;;;;;;;;;;24.60;99.90;;;;;;4593455;19;20003;-60
2023/08/21 00:43:38;;;;;;;;;;;24.60;99.90;;;;;;4592685;19;19970;-60
2023/08/21 00:45:11;;;;;;;;;;;24.60;99.90;;;;;;4593411;19;19915;-61
2023/08/21 00:46:43;;;;;;;;;;;24.60;99.90;;;;;;4592194;19;19930;-60
2023/08/21 00:48:14;;;;;;;;;;;24.60;99.90;;;;;;4594439;19;20295;-60
2023/08/21 00:49:45;;;;;;;;;;;24.60;99.90;;;;;;4593221;19;20380;-60
2023/08/21 00:51:17;;;;;;;;;;;24.60;99.90;;;;;;4594061;19;20214;-60
2023/08/21 00:52:52;;;;;;;;;;;24.50;99.90;;;;;;4593943;19;19971;-60
2023/08/21 00:54:24;;;;;;;;;;;24.50;99.90;;;;;;4594426;19;20231;-61
2023/08/21 00:55:55;;;;;;;;;;;24.50;99.90;;;;;;4593027;19;19921;-61
2023/08/21 00:57:26;;;;;;;;;;;24.50;99.90;;;;;;4591844;19;20280;-61
2023/08/21 00:58:58;;;;;;;;;;;24.50;99.90;;;;;;4592825;19;19921;-61
2023/08/21 01:00:29;;;;;;;;;;;24.50;99.90;;;;;;4593160;19;19911;-61
2023/08/21 01:02:00;;;;;;;;;;;24.50;99.90;;;;;;4591766;19;20040;-60
2023/08/21 01:03:32;;;;;;;;;;;24.50;99.90;;;;;;4591675;19;19923;-62
2023/08/21 01:05:04;;;;;;;;;;;24.50;99.90;;;;;;4592310;19;19918;-61
2023/08/21 01:06:36;;;;;;;;;;;24.40;99.90;;;;;;4594068;19;19919;-61
2023/08/21 01:08:28;;;;;;;;;;;24.40;99.90;;;;;;4594085;19;20241;-61
2023/08/21 01:10:10;;;;;;;;;;;24.40;99.90;;;;;;4593996;19;20288;-61
2023/08/21 01:11:47;;;;;;;;;;;24.40;99.90;;;;;;4594115;19;20204;-61
2023/08/21 01:13:51;;;;;;;;;;;24.40;99.90;;;;;;4592451;19;19917;-61
2023/08/21 01:15:22;;;;;;;;;;;24.40;99.90;;;;;;4590627;19;19942;-61
2023/08/21 01:16:55;;;;;;;;;;;24.40;99.90;;;;;;4591762;19;19918;-60
2023/08/21 01:18:27;;;;;;;;;;;24.40;99.90;;;;;;4591614;19;20021;-61
2023/08/21 01:19:58;;;;;;;;;;;24.30;99.90;;;;;;4591661;19;19942;-60
2023/08/21 01:21:29;;;;;;;;;;;24.40;99.90;;;;;;4591586;19;20316;-61
2023/08/21 01:23:05;;;;;;;;;;;24.30;99.90;;;;;;4590935;19;20284;-60
2023/08/21 01:24:36;;;;;;;;;;;24.30;99.90;;;;;;4590440;19;19915;-60
2023/08/21 01:26:07;;;;;;;;;;;24.30;99.90;;;;;;4591259;19;20311;-60
2023/08/21 01:27:47;;;;;;;;;;;24.30;99.90;;;;;;4591464;19;20223;-61
2023/08/21 01:29:18;;;;;;;;;;;24.30;99.90;;;;;;4591576;19;19919;-61
2023/08/21 01:30:50;;;;;;;;;;;24.30;99.90;;;;;;4591392;19;19926;-60
2023/08/21 01:32:43;;;;;;;;;;;24.30;99.90;;;;;;4591211;19;19915;-61
2023/08/21 01:34:14;;;;;;;;;;;24.30;99.90;;;;;;4591142;19;19918;-60
2023/08/21 01:35:46;;;;;;;;;;;24.30;99.90;;;;;;4589725;19;19919;-61
2023/08/21 01:37:18;;;;;;;;;;;24.20;99.90;;;;;;4590941;19;19936;-60
2023/08/21 01:38:50;;;;;;;;;;;24.20;99.90;;;;;;4591141;19;19918;-60
2023/08/21 01:40:24;;;;;;;;;;;24.30;99.90;;;;;;4591264;19;19991;-61
2023/08/21 01:41:56;;;;;;;;;;;24.20;99.90;;;;;;4591226;19;19915;-60
2023/08/21 01:43:28;;;;;;;;;;;24.20;99.90;;;;;;4589612;19;19918;-64
2023/08/21 01:44:59;;;;;;;;;;;24.30;99.90;;;;;;4589890;19;20327;-61
2023/08/21 01:46:31;;;;;;;;;;;24.30;99.90;;;;;;4590234;19;19914;-61
2023/08/21 01:48:02;;;;;;;;;;;24.30;99.90;;;;;;4590721;19;19911;-61
2023/08/21 01:49:33;;;;;;;;;;;24.30;99.90;;;;;;4589988;19;19911;-61
2023/08/21 01:51:04;;;;;;;;;;;24.30;99.90;;;;;;4590825;19;19915;-60
2023/08/21 01:52:36;;;;;;;;;;;24.20;99.90;;;;;;4592164;19;19938;-60
2023/08/21 01:54:07;;;;;;;;;;;24.30;99.90;;;;;;4593005;19;20267;-60
2023/08/21 01:55:38;;;;;;;;;;;24.20;99.90;;;;;;4592763;19;19953;-60
2023/08/21 01:57:09;;;;;;;;;;;24.20;99.90;;;;;;4593173;19;19985;-60
2023/08/21 01:58:41;;;;;;;;;;;24.20;99.90;;;;;;4593198;19;19919;-61
2023/08/21 02:00:12;;;;;;;;;;;24.30;99.90;;;;;;4593116;19;20295;-60
2023/08/21 02:01:44;;;;;;;;;;;24.30;99.90;;;;;;4592345;19;19953;-60
2023/08/21 02:03:15;;;;;;;;;;;24.30;99.90;;;;;;4591858;19;19938;-60
2023/08/21 02:04:46;;;;;;;;;;;24.30;99.90;;;;;;4592904;19;19914;-61
2023/08/21 02:06:18;;;;;;;;;;;24.30;99.90;;;;;;4592580;19;19931;-61
2023/08/21 02:07:49;;;;;;;;;;;24.30;99.90;;;;;;4592966;19;19920;-60
2023/08/21 02:09:20;;;;;;;;;;;24.30;99.90;;;;;;4592692;19;19918;-61
2023/08/21 02:10:52;;;;;;;;;;;24.30;99.90;;;;;;4592564;19;19915;-61
2023/08/21 02:12:23;;;;;;;;;;;24.30;99.90;;;;;;4592537;19;19919;-61
2023/08/21 02:13:55;;;;;;;;;;;24.40;99.90;;;;;;4591758;19;19918;-60
2023/08/21 02:15:26;;;;;;;;;;;24.40;99.90;;;;;;4592038;19;19921;-61
2023/08/21 02:16:57;;;;;;;;;;;24.40;99.90;;;;;;4593169;19;19939;-60
2023/08/21 02:18:29;;;;;;;;;;;24.40;99.90;;;;;;4592803;19;19915;-60
2023/08/21 02:20:00;;;;;;;;;;;24.40;99.90;;;;;;4592793;19;19918;-61
2023/08/21 02:21:31;;;;;;;;;;;24.30;99.90;;;;;;4592108;19;19921;-61
2023/08/21 02:23:03;;;;;;;;;;;24.30;99.90;;;;;;4591047;19;19919;-61
2023/08/21 02:24:35;;;;;;;;;;;24.30;99.90;;;;;;4590323;19;20320;-61
2023/08/21 02:26:06;;;;;;;;;;;24.30;99.90;;;;;;4591075;19;19911;-61
2023/08/21 02:27:37;;;;;;;;;;;24.20;99.90;;;;;;4591455;19;19926;-61
2023/08/21 02:29:09;;;;;;;;;;;24.20;99.90;;;;;;4591483;19;19925;-61
2023/08/21 02:30:43;;;;;;;;;;;24.30;99.90;;;;;;4591438;19;19919;-60
2023/08/21 02:32:14;;;;;;;;;;;24.20;99.90;;;;;;4592255;19;20300;-60
2023/08/21 02:33:46;;;;;;;;;;;24.20;99.90;;;;;;4591303;19;20237;-60
2023/08/21 02:35:17;;;;;;;;;;;24.20;99.90;;;;;;4592398;19;19915;-60
2023/08/21 02:36:48;;;;;;;;;;;24.20;99.90;;;;;;4592884;19;19922;-61
2023/08/21 02:38:20;;;;;;;;;;;24.20;99.90;;;;;;4597201;19;19918;-60
2023/08/21 02:39:51;;;;;;;;;;;24.20;99.90;;;;;;4597188;19;20358;-60
2023/08/21 02:41:22;;;;;;;;;;;24.20;99.90;;;;;;4597211;19;19911;-60
2023/08/21 02:42:54;;;;;;;;;;;24.20;99.90;;;;;;4596639;19;19918;-61
2023/08/21 02:44:25;;;;;;;;;;;24.20;99.90;;;;;;4597121;19;20389;-61
2023/08/21 02:45:56;;;;;;;;;;;24.20;99.90;;;;;;4597093;19;19952;-60
2023/08/21 02:47:27;;;;;;;;;;;24.10;99.90;;;;;;4597343;19;20225;-60
2023/08/21 02:48:58;;;;;;;;;;;24.20;99.90;;;;;;4597033;19;19915;-60
2023/08/21 02:50:30;;;;;;;;;;;24.10;99.90;;;;;;4596957;19;19925;-60
2023/08/21 02:52:01;;;;;;;;;;;24.10;99.90;;;;;;4597290;19;19919;-60
2023/08/21 02:53:32;;;;;;;;;;;24.10;99.90;;;;;;4595295;19;20295;-61
2023/08/21 02:55:04;;;;;;;;;;;24.10;99.90;;;;;;4596885;19;19970;-60
2023/08/21 02:56:35;;;;;;;;;;;24.10;99.90;;;;;;4595488;19;20002;-61
2023/08/21 02:58:07;;;;;;;;;;;24.10;99.90;;;;;;4596886;19;19966;-60
2023/08/21 02:59:38;;;;;;;;;;;24.10;99.90;;;;;;4596590;19;19915;-61
2023/08/21 03:01:09;;;;;;;;;;;24.10;99.90;;;;;;4596328;19;19935;-61
2023/08/21 03:02:43;;;;;;;;;;;24.10;99.90;;;;;;4596099;19;19919;-61
2023/08/21 03:04:15;;;;;;;;;;;24.10;99.90;;;;;;4596745;19;20356;-61
2023/08/21 03:05:46;;;;;;;;;;;24.10;99.90;;;;;;4596661;19;20266;-60
2023/08/21 03:07:18;;;;;;;;;;;24.10;99.90;;;;;;4596668;19;19915;-61
2023/08/21 03:08:50;;;;;;;;;;;24.00;99.90;;;;;;4596555;19;19919;-61
2023/08/21 03:10:23;;;;;;;;;;;24.00;99.90;;;;;;4596595;19;19918;-61
2023/08/21 03:11:54;;;;;;;;;;;24.00;99.90;;;;;;4596533;19;19915;-60
2023/08/21 03:13:26;;;;;;;;;;;24.00;99.90;;;;;;4593781;19;19980;-60
2023/08/21 03:14:57;;;;;;;;;;;24.00;99.90;;;;;;4595618;19;19919;-61
2023/08/21 03:16:28;;;;;;;;;;;24.00;99.90;;;;;;4595056;19;19943;-61
2023/08/21 03:18:00;;;;;;;;;;;24.00;99.90;;;;;;4596380;19;19939;-60
2023/08/21 03:19:31;;;;;;;;;;;24.00;99.90;;;;;;4596432;19;20223;-61
2023/08/21 03:21:02;;;;;;;;;;;24.00;99.90;;;;;;4596380;19;19915;-60
2023/08/21 03:22:38;;;;;;;;;;;23.90;99.90;;;;;;4596340;19;19919;-61
2023/08/21 03:24:10;;;;;;;;;;;23.90;99.90;;;;;;4596282;19;19919;-61
2023/08/21 03:25:41;;;;;;;;;;;24.00;99.90;;;;;;4596368;19;19919;-61
2023/08/21 03:27:14;;;;;;;;;;;24.00;99.90;;;;;;4596243;19;19914;-60
2023/08/21 03:28:46;;;;;;;;;;;23.90;99.90;;;;;;4596212;19;19919;-60
2023/08/21 03:30:17;;;;;;;;;;;23.90;99.90;;;;;;4596169;19;20328;-60
2023/08/21 03:31:49;;;;;;;;;;;24.00;99.90;;;;;;4596243;19;20220;-61
2023/08/21 03:33:20;;;;;;;;;;;23.90;99.90;;;;;;4594751;19;19915;-61
2023/08/21 03:34:51;;;;;;;;;;;23.90;99.90;;;;;;4595690;19;19919;-60
2023/08/21 03:36:31;;;;;;;;;;;24.00;99.90;;;;;;4594565;19;19943;-60
2023/08/21 03:38:02;;;;;;;;;;;23.90;99.90;;;;;;4596022;19;20231;-61
2023/08/21 03:39:33;;;;;;;;;;;23.90;99.90;;;;;;4595966;19;19918;-60
2023/08/21 03:41:05;;;;;;;;;;;23.90;99.90;;;;;;4595881;19;19919;-61
2023/08/21 03:42:36;;;;;;;;;;;24.00;99.90;;;;;;4595464;19;19915;-61
2023/08/21 03:44:08;;;;;;;;;;;24.00;99.90;;;;;;4595928;19;20003;-60
2023/08/21 03:45:39;;;;;;;;;;;24.00;99.90;;;;;;4595278;19;20248;-60
2023/08/21 03:47:10;;;;;;;;;;;23.90;99.90;;;;;;4593438;19;20329;-60
2023/08/21 03:48:42;;;;;;;;;;;24.00;99.90;;;;;;4593514;19;19919;-60
2023/08/21 03:50:13;;;;;;;;;;;23.90;99.90;;;;;;4595456;19;20291;-60
2023/08/21 03:51:45;;;;;;;;;;;22.00;99.90;;;;;;4594132;19;19939;-60
2023/08/21 03:53:16;;;;;;;;;;;21.00;99.90;;;;;;4591454;19;19923;-60
2023/08/21 03:54:48;;;;;;;;;;;20.60;99.90;;;;;;4593514;19;20232;-61
2023/08/21 03:56:21;;;;;;;;;;;20.30;99.90;;;;;;4593501;19;20635;-60
2023/08/21 04:00:16;;;;;;;;;;;20.30;99.90;;;;;;4595303;19;19915;-47
2023/08/21 04:01:47;;;;;;;;;;;20.10;99.90;;;;;;4595466;19;19971;-60
2023/08/21 04:03:19;;;;;;;;;;;20.20;99.90;;;;;;4594322;19;19918;-60
2023/08/21 04:04:50;;;;;;;;;;;20.10;99.90;;;;;;4595399;19;19918;-60
2023/08/21 04:06:23;;;;;;;;;;;20.00;99.90;;;;;;4595433;19;20248;-60
2023/08/21 04:07:54;;;;;;;;;;;20.00;99.90;;;;;;4595408;19;19915;-60
2023/08/21 04:09:26;;;;;;;;;;;20.00;99.90;;;;;;4595352;19;20291;-60
2023/08/21 04:10:59;;;;;;;;;;;19.90;99.90;;;;;;4594857;19;19925;-60
2023/08/21 04:12:31;;;;;;;;;;;20.00;99.90;;;;;;4595250;19;19911;-61
2023/08/21 04:14:02;;;;;;;;;;;20.00;99.90;;;;;;4595261;19;19919;-60
2023/08/21 04:15:35;;;;;;;;;;;19.90;99.90;;;;;;4594061;19;19926;-60
2023/08/21 04:17:06;;;;;;;;;;;20.00;99.90;;;;;;4595580;19;19918;-60
2023/08/21 04:18:38;;;;;;;;;;;19.90;99.90;;;;;;4595144;19;19918;-60
2023/08/21 04:20:11;;;;;;;;;;;19.90;99.90;;;;;;4595164;19;19915;-60
2023/08/21 04:21:42;;;;;;;;;;;19.90;99.90;;;;;;4594944;19;19915;-60
2023/08/21 04:23:13;;;;;;;;;;;19.90;99.90;;;;;;4593985;19;19919;-60
2023/08/21 04:24:45;;;;;;;;;;;19.90;99.90;;;;;;4594979;19;19925;-60
2023/08/21 04:26:16;;;;;;;;;;;19.90;99.90;;;;;;4594883;19;19915;-60
2023/08/21 04:27:47;;;;;;;;;;;19.90;99.90;;;;;;4594930;19;19923;-60
2023/08/21 04:29:19;;;;;;;;;;;19.90;99.90;;;;;;4595238;19;19939;-70
2023/08/21 04:30:50;;;;;;;;;;;19.90;99.90;;;;;;4594970;19;20216;-67
2023/08/21 04:32:22;;;;;;;;;;;19.80;99.90;;;;;;4593594;19;19991;-66
2023/08/21 04:33:54;;;;;;;;;;;19.80;99.90;;;;;;4594505;19;19923;-65
2023/08/21 04:35:25;;;;;;;;;;;19.80;99.90;;;;;;4593383;19;20007;-65
2023/08/21 04:36:56;;;;;;;;;;;19.80;99.90;;;;;;4594465;19;19914;-65
2023/08/21 04:38:28;;;;;;;;;;;19.80;99.90;;;;;;4594856;19;19923;-65
2023/08/21 04:39:59;;;;;;;;;;;19.90;99.90;;;;;;4593521;19;19915;-66
2023/08/21 04:41:30;;;;;;;;;;;19.90;99.90;;;;;;4594522;19;19914;-66
2023/08/21 04:43:02;;;;;;;;;;;19.90;99.90;;;;;;4593641;19;20288;-65
2023/08/21 04:44:33;;;;;;;;;;;19.90;99.90;;;;;;4594574;19;19915;-65
2023/08/21 04:46:05;;;;;;;;;;;19.90;99.90;;;;;;4593764;19;19925;-65
2023/08/21 04:47:37;;;;;;;;;;;19.90;99.90;;;;;;4593068;19;19918;-66
2023/08/21 04:49:08;;;;;;;;;;;19.90;99.90;;;;;;4591254;19;19921;-65
2023/08/21 04:50:39;;;;;;;;;;;19.90;99.90;;;;;;4591605;19;19919;-66
2023/08/21 04:52:11;;;;;;;;;;;19.90;99.90;;;;;;4592626;19;19918;-65
2023/08/21 04:53:42;;;;;;;;;;;19.90;99.90;;;;;;4591456;19;19914;-65
2023/08/21 04:55:14;;;;;;;;;;;19.90;99.90;;;;;;4592858;19;20204;-66
2023/08/21 04:56:46;;;;;;;;;;;20.00;99.90;;;;;;4593852;19;19919;-66
2023/08/21 04:58:18;;;;;;;;;;;20.00;99.90;;;;;;4591486;19;19922;-66
2023/08/21 04:59:49;;;;;;;;;;;20.00;99.90;;;;;;4590352;19;20283;-67
2023/08/21 05:01:21;;;;;;;;;;;20.00;99.90;;;;;;4593483;19;19926;-65
2023/08/21 05:02:52;;;;;;;;;;;20.00;99.90;;;;;;4593276;19;19907;-66
2023/08/21 05:04:23;;;;;;;;;;;20.00;99.90;;;;;;4593683;19;20286;-66
2023/08/21 05:05:55;;;;;;;;;;;20.00;99.90;;;;;;4594537;19;19926;-65
2023/08/21 05:07:27;;;;;;;;;;;20.00;99.90;;;;;;4592989;19;19941;-65
2023/08/21 05:08:59;;;;;;;;;;;20.00;99.90;;;;;;4593980;19;19918;-65
2023/08/21 05:10:31;;;;;;;;;;;20.00;99.90;;;;;;4594174;19;19922;-66
2023/08/21 05:12:02;;;;;;;;;;;20.00;99.90;;;;;;4594319;19;19914;-65
2023/08/21 05:13:34;;;;;;;;;;;20.00;99.90;;;;;;4593223;19;20267;-65
2023/08/21 05:15:06;;;;;;;;;;;20.10;99.90;;;;;;4593847;19;19915;-66
2023/08/21 05:16:38;;;;;;;;;;;20.00;99.90;;;;;;4591692;19;19942;-65
2023/08/21 05:18:09;;;;;;;;;;;20.10;99.90;;;;;;4593795;19;19939;-67
2023/08/21 05:19:41;;;;;;;;;;;20.10;99.90;;;;;;4594244;19;19918;-66
2023/08/21 05:21:12;;;;;;;;;;;20.10;99.90;;;;;;4594194;19;19919;-68
2023/08/21 05:22:43;;;;;;;;;;;20.10;99.90;;;;;;4593742;19;19936;-66
2023/08/21 05:24:15;;;;;;;;;;;20.10;99.90;;;;;;4592848;19;19919;-67
2023/08/21 05:25:46;;;;;;;;;;;20.10;99.90;;;;;;4593705;19;19925;-65
2023/08/21 05:27:17;;;;;;;;;;;20.10;99.90;;;;;;4592409;19;19919;-68
2023/08/21 05:28:49;;;;;;;;;;;20.10;99.90;;;;;;4593412;19;19919;-68
2023/08/21 05:30:20;;;;;;;;;;;20.10;99.90;;;;;;4593391;19;19937;-68
2023/08/21 05:31:52;;;;;;;;;;;20.10;99.90;;;;;;4593624;19;19935;-59
2023/08/21 05:33:24;;;;;;;;;;;20.20;99.90;;;;;;4592519;19;19919;-62
2023/08/21 05:34:56;;;;;;;;;;;20.20;99.90;;;;;;4593620;19;20286;-70
2023/08/21 05:36:28;;;;;;;;;;;20.20;99.90;;;;;;4592763;19;19986;-62
2023/08/21 05:38:00;;;;;;;;;;;20.20;99.90;;;;;;4593530;19;19935;-62
2023/08/21 05:39:31;;;;;;;;;;;20.20;99.90;;;;;;4593831;19;20292;-62
2023/08/21 05:41:03;;;;;;;;;;;20.20;99.90;;;;;;4593864;19;20207;-62
2023/08/21 05:42:34;;;;;;;;;;;20.20;99.90;;;;;;4593134;19;19923;-62
2023/08/21 05:44:05;;;;;;;;;;;20.20;99.90;;;;;;4593436;19;19986;-62
2023/08/21 05:45:38;;;;;;;;;;;20.20;99.90;;;;;;4593409;19;19919;-69
2023/08/21 05:47:11;;;;;;;;;;;20.20;99.90;;;;;;4593781;19;19915;-69
2023/08/21 05:48:42;;;;;;;;;;;20.20;99.90;;;;;;4592369;19;19923;-69
2023/08/21 05:50:14;;;;;;;;;;;20.20;99.90;;;;;;4592046;19;19914;-69
2023/08/21 05:51:46;;;;;;;;;;;20.20;99.90;;;;;;4592352;19;19911;-69
2023/08/21 05:53:21;;;;;;;;;;;20.20;99.90;;;;;;4592218;19;20188;-68
2023/08/21 05:54:52;;;;;;;;;;;20.20;99.90;;;;;;4593179;19;20226;-68
2023/08/21 05:56:24;;;;;;;;;;;20.20;99.90;;;;;;4592420;19;19931;-68
2023/08/21 05:57:56;;;;;;;;;;;20.20;99.90;;;;;;4593139;19;19942;-68
2023/08/21 05:59:30;;;;;;;;;;;20.20;99.90;;;;;;4593373;19;20323;-66
2023/08/21 06:01:01;;;;;;;;;;;20.30;99.90;;;;;;4592012;19;19926;-60
2023/08/21 06:02:33;;;;;;;;;;;20.50;99.90;;;;;;4590555;19;20263;-59
2023/08/21 06:04:05;;;;;;;;;;;20.90;99.90;;;;;;4592351;19;19926;-59
2023/08/21 06:05:37;;;;;;;;;;;21.30;99.90;;;;;;4592865;19;19922;-58
2023/08/21 06:07:09;;;;;;;;;;;21.70;99.90;;;;;;4592687;19;19919;-59
2023/08/21 06:08:42;;;;;;;;;;;22.00;99.90;;;;;;4593062;19;19915;-59
2023/08/21 06:10:15;;;;;;;;;;;22.30;99.90;;;;;;4592243;19;19938;-58
2023/08/21 06:11:46;;;;;;;;;;;22.50;99.90;;;;;;4588208;19;20229;-58
2023/08/21 06:13:20;;;;;;;;;;;22.70;99.90;;;;;;4591170;19;19915;-59
2023/08/21 06:14:51;;;;;;;;;;;22.90;99.90;;;;;;4592622;19;19930;-53
2023/08/21 06:16:22;;;;;;;;;;;23.10;99.90;;;;;;4592083;19;19915;-65
2023/08/21 06:17:54;;;;;;;;;;;22.40;99.90;;;;;;4593174;19;20255;-64
2023/08/21 06:19:26;;;;;;;;;;;21.50;99.90;;;;;;4592906;19;19915;-64
2023/08/21 06:20:57;;;;;;;;;;;21.70;99.90;;;;;;4592818;19;19923;-58
2023/08/21 06:22:30;;;;;;;;;;;21.10;99.90;;;;;;4592300;19;19915;-59
2023/08/21 06:24:02;;;;;;;;;;;20.70;99.90;;;;;;4592721;19;19926;-58
2023/08/21 06:25:33;;;;;;;;;;;20.50;99.90;;;;;;4595494;19;19919;-58
2023/08/21 06:27:04;;;;;;;;;;;20.50;99.90;;;;;;4592639;19;19915;-61
2023/08/21 06:28:36;;;;;;;;;;;20.40;99.90;;;;;;4592672;19;19926;-58
2023/08/21 06:30:07;;;;;;;;;;;20.40;99.90;;;;;;4592588;19;19919;-60
2023/08/21 06:31:39;;;;;;;;;;;20.40;99.90;;;;;;4592573;19;19919;-60
2023/08/21 06:33:11;;;;;;;;;;;20.50;99.90;;;;;;4591746;19;19911;-60
2023/08/21 06:34:42;;;;;;;;;;;20.40;99.90;;;;;;4592533;19;20256;-60
2023/08/21 06:36:14;;;;;;;;;;;20.50;99.90;;;;;;4591805;19;19915;-60
2023/08/21 06:37:47;;;;;;;;;;;20.40;99.90;;;;;;4592449;19;19919;-60
2023/08/21 06:39:18;;;;;;;;;;;20.40;99.90;;;;;;4589874;19;19915;-60
2023/08/21 06:40:50;;;;;;;;;;;20.40;99.90;;;;;;4590162;19;20266;-60
2023/08/21 06:42:23;;;;;;;;;;;20.50;99.90;;;;;;4588376;19;20256;-61
2023/08/21 06:43:54;;;;;;;;;;;20.40;99.90;;;;;;4586841;19;19948;-60
2023/08/21 06:45:30;;;;;;;;;;;20.50;99.90;;;;;;4586866;19;20560;-60
2023/08/21 06:47:01;;;;;;;;;;;20.50;99.90;;;;;;4586863;19;19926;-60
2023/08/21 06:48:34;;;;;;;;;;;20.40;99.90;;;;;;4586849;19;20371;-61
2023/08/21 06:50:05;;;;;;;;;;;20.40;99.90;;;;;;4586801;19;19933;-60
2023/08/21 06:51:37;;;;;;;;;;;20.50;99.90;;;;;;4586916;19;19930;-60
2023/08/21 06:53:08;;;;;;;;;;;20.50;99.90;;;;;;4585871;19;20287;-60
2023/08/21 06:54:40;;;;;;;;;;;20.50;99.90;;;;;;4586674;19;20374;-60
2023/08/21 06:56:11;;;;;;;;;;;20.50;99.90;;;;;;4585954;19;19923;-61
2023/08/21 06:57:42;;;;;;;;;;;20.50;99.90;;;;;;4588656;19;19923;-60
2023/08/21 06:59:15;;;;;;;;;;;20.50;99.90;;;;;;4592071;19;19934;-58
2023/08/21 07:00:46;;;;;;;;;;;20.60;99.90;;;;;;4592061;19;20299;-60
2023/08/21 07:02:19;;;;;;;;;;;20.60;99.90;;;;;;4591923;19;19978;-60
2023/08/21 07:03:50;;;;;;;;;;;20.60;99.90;;;;;;4592029;19;19915;-60
2023/08/21 07:05:22;;;;;;;;;;;20.60;99.90;;;;;;4592036;19;19915;-60
2023/08/21 07:06:53;;;;;;;;;;;20.60;99.90;;;;;;4591951;19;19919;-60
2023/08/21 07:08:25;;;;;;;;;;;20.60;99.90;;;;;;4591962;19;20204;-58
2023/08/21 07:09:56;;;;;;;;;;;20.60;99.90;;;;;;4591849;19;19918;-60
2023/08/21 07:11:27;;;;;;;;;;;20.70;99.90;;;;;;4591864;19;19919;-60
2023/08/21 07:12:59;;;;;;;;;;;20.70;99.90;;;;;;4591123;19;19915;-68
2023/08/21 07:14:30;;;;;;;;;;;20.70;99.90;;;;;;4591829;19;19923;-60
2023/08/21 07:16:02;;;;;;;;;;;20.90;99.90;;;;;;4588961;19;19952;-58
2023/08/21 07:17:34;;;;;;;;;;;21.20;99.90;;;;;;4590392;19;19915;-58
2023/08/21 07:19:06;;;;;;;;;;;21.30;99.90;;;;;;4591419;19;19926;-60
2023/08/21 07:20:48;;;;;;;;;;;21.40;99.90;;;;;;4590714;19;19923;-54
2023/08/21 07:22:33;;;;;;;;;;;21.50;99.90;;;;;;4591095;19;19919;-57
2023/08/21 07:24:08;;;;;;;;;;;21.70;99.90;;;;;;4596147;19;20227;-58
2023/08/21 07:25:39;;;;;;;;;;;21.70;99.90;;;;;;4594691;19;20262;-54
2023/08/21 07:27:10;;;;;;;;;;;21.10;99.90;;;;;;4595624;19;19971;-55
2023/08/21 07:28:42;;;;;;;;;;;20.90;99.90;;;;;;4596108;19;19922;-57
2023/08/21 07:30:16;;;;;;;;;;;20.80;99.90;;;;;;4594752;19;19910;-60
2023/08/21 07:31:48;;;;;;;;;;;20.80;99.90;;;;;;4594695;19;19978;-67
2023/08/21 07:33:20;;;;;;;;;;;20.80;99.90;;;;;;4592072;19;19915;-63
2023/08/21 07:34:54;;;;;;;;;;;20.80;99.90;;;;;;4595284;19;19918;-64
2023/08/21 07:36:25;;;;;;;;;;;20.80;99.90;;;;;;4595029;19;19915;-64
2023/08/21 07:37:57;;;;;;;;;;;20.80;99.90;;;;;;4596502;19;19934;-62
2023/08/21 07:39:30;;;;;;;;;;;20.80;99.90;;;;;;4596346;19;19921;-62
2023/08/21 07:41:08;;;;;;;;;;;20.80;99.90;;;;;;4596214;19;19915;-63
2023/08/21 07:42:40;;;;;;;;;;;20.80;99.90;;;;;;4593889;19;19918;-62
2023/08/21 07:44:11;;;;;;;;;;;20.90;99.90;;;;;;4595421;19;19911;-62
2023/08/21 07:45:42;;;;;;;;;;;20.90;99.90;;;;;;4596026;19;19929;-62
2023/08/21 07:47:15;;;;;;;;;;;20.90;99.90;;;;;;4596152;19;19922;-62
2023/08/21 07:48:46;;;;;;;;;;;20.90;99.90;;;;;;4594401;19;20325;-62
2023/08/21 07:50:17;;;;;;;;;;;20.90;99.90;;;;;;4594526;19;19942;-62
2023/08/21 07:51:49;;;;;;;;;;;20.90;99.90;;;;;;4595173;19;20295;-62
2023/08/21 07:53:20;;;;;;;;;;;20.90;99.90;;;;;;4594298;19;19918;-62
2023/08/21 07:54:54;;;;;;;;;;;20.90;99.90;;;;;;4595503;19;20298;-62
2023/08/21 07:56:26;;;;;;;;;;;21.00;99.90;;;;;;4594978;19;20139;-62
2023/08/21 07:57:57;;;;;;;;;;;21.00;99.90;;;;;;4595308;19;19919;-62
2023/08/21 07:59:28;;;;;;;;;;;21.10;99.90;;;;;;4595462;19;19930;-62
2023/08/21 08:01:01;;;;;;;;;;;21.00;99.90;;;;;;4595429;19;19928;-62
2023/08/21 08:02:35;;;;;;;;;;;21.10;99.90;;;;;;4595155;19;20291;-62
2023/08/21 08:04:06;;;;;;;;;;;21.10;99.90;;;;;;4595676;19;19918;-62
2023/08/21 08:05:38;;;;;;;;;;;21.10;99.90;;;;;;4595593;19;20319;-62
2023/08/21 08:07:12;;;;;;;;;;;21.10;99.90;;;;;;4595661;19;19932;-63
2023/08/21 08:08:44;;;;;;;;;;;21.20;99.90;;;;;;4595279;19;19911;-62
2023/08/21 08:10:15;;;;;;;;;;;21.20;99.90;;;;;;4595388;19;19923;-62
2023/08/21 08:11:47;;;;;;;;;;;21.20;99.90;;;;;;4595165;19;19928;-62
2023/08/21 08:13:18;;;;;;;;;;;21.20;99.90;;;;;;4594106;19;19915;-60
2023/08/21 08:14:50;;;;;;;;;;;21.30;99.90;;;;;;4594835;19;19932;-62
2023/08/21 08:16:21;;;;;;;;;;;21.30;99.90;;;;;;4594673;19;19919;-62
2023/08/21 08:17:54;;;;;;;;;;;21.40;99.90;;;;;;4595849;19;19979;-62
2023/08/21 08:19:27;;;;;;;;;;;21.40;99.90;;;;;;4594945;19;20007;-62
2023/08/21 08:20:59;;;;;;;;;;;21.40;99.90;;;;;;4594993;19;19915;-60
2023/08/21 08:22:30;;;;;;;;;;;21.60;99.90;;;;;;4594824;19;19919;-60
2023/08/21 08:24:02;;;;;;;;;;;21.70;99.90;;;;;;4594982;19;19919;-62
2023/08/21 08:25:33;;;;;;;;;;;21.80;99.90;;;;;;4595258;19;19911;-60
2023/08/21 08:27:07;;;;;;;;;;;21.90;99.90;;;;;;4595196;19;19914;-60
2023/08/21 08:28:38;;;;;;;;;;;22.00;99.90;;;;;;4594902;19;20295;-60
2023/08/21 08:30:10;;;;;;;;;;;22.00;99.90;;;;;;4595239;19;20208;-60
2023/08/21 08:31:41;;;;;;;;;;;22.10;99.90;;;;;;4594679;19;19943;-60
2023/08/21 08:33:13;;;;;;;;;;;22.10;99.90;;;;;;4593675;19;19927;-60
2023/08/21 08:34:47;;;;;;;;;;;22.10;99.90;;;;;;4594649;19;19915;-60
2023/08/21 08:36:18;;;;;;;;;;;22.10;99.90;;;;;;4594358;19;19918;-60
2023/08/21 08:37:50;;;;;;;;;;;22.10;99.90;;;;;;4594608;19;19974;-60
2023/08/21 08:39:23;;;;;;;;;;;22.20;99.90;;;;;;4594604;19;19915;-60
2023/08/21 08:40:57;;;;;;;;;;;22.50;99.90;;;;;;4594852;19;19911;-60
2023/08/21 08:42:29;;;;;;;;;;;23.00;99.90;;;;;;4594382;19;19925;-60
2023/08/21 08:44:00;;;;;;;;;;;23.20;99.90;;;;;;4595439;19;19919;-60
2023/08/21 08:45:32;;;;;;;;;;;23.60;99.90;;;;;;4593169;19;19935;-60
2023/08/21 08:47:05;;;;;;;;;;;23.80;99.90;;;;;;4592957;19;19915;-60
2023/08/21 08:48:37;;;;;;;;;;;23.90;99.90;;;;;;4594096;19;19913;-60
2023/08/21 08:50:09;;;;;;;;;;;24.10;99.90;;;;;;4594401;19;19919;-60
2023/08/21 08:51:40;;;;;;;;;;;24.20;99.90;;;;;;4594711;19;19911;-60
2023/08/21 08:53:12;;;;;;;;;;;24.30;99.90;;;;;;4593482;19;19919;-60
2023/08/21 08:54:48;;;;;;;;;;;24.50;99.90;;;;;;4594355;19;19933;-60
2023/08/21 08:56:20;;;;;;;;;;;24.50;99.90;;;;;;4593856;19;19968;-60
2023/08/21 08:57:52;;;;;;;;;;;24.50;99.90;;;;;;4594136;19;19949;-60